EW6473 Weather Reports


time (UTC)temp
F
wind
direction
speed
knots
gust
knots
rain 1hr
in
rain 24hr
in
rain mn
in
humidity
%
barometer
mb
20260507030018 66 315 0.0 2.6 0.00 0.00 0.00 61 1017.9
20260507024518 67 315 0.9 2.6 0.00 0.00 0.00 59 1018.0
20260507023018 68 315 0.9 2.6 0.00 0.00 0.00 56 1017.5
20260507021518 69 338 0.9 4.3 0.00 0.00 0.00 53 1017.5
20260507020017 70 315 0.9 4.3 0.00 0.00 0.00 50 1017.1
20260507014518 71 315 0.9 7.0 0.00 0.00 0.00 49 1017.1
20260507013017 71 315 1.7 7.0 0.00 0.00 0.00 48 1017.0
20260507011518 71 315 1.7 6.1 0.00 0.00 0.00 48 1017.0
20260507010017 72 338 1.7 7.0 0.00 0.00 0.00 47 1017.1
20260507004517 73 338 0.9 7.0 0.00 0.00 0.00 45 1017.0
20260507003017 74 225 1.7 7.0 0.00 0.00 0.00 43 1017.1
20260507001517 74 225 1.7 6.1 0.00 0.00 0.00 42 1017.0
20260507000017 74 315 0.9 6.1 0.00 0.00 0.00 41 1017.0
20260506234537 74 338 1.7 8.7 0.00 0.00 0.00 41 1016.8
20260506233017 74 315 1.7 7.8 0.00 0.00 0.00 41 1016.9
20260506231518 73 315 1.7 8.7 0.00 0.00 0.00 41 1017.0
20260506230017 74 225 1.7 7.0 0.00 0.00 0.00 40 1017.1
20260506224517 74 225 1.7 6.1 0.00 0.00 0.00 42 1017.3
20260506223017 73 315 1.7 6.1 0.00 0.00 0.00 42 1017.4
20260506221517 73 203 1.7 7.0 0.00 0.00 0.00 42 1017.6
20260506220037 72 225 1.7 7.0 0.00 0.00 0.00 43 1017.7
20260506214517 71 225 1.7 7.0 0.00 0.00 0.00 44 1017.7
20260506213017 72 203 2.6 7.8 0.00 0.00 0.00 44 1018.0
20260506211517 71 315 1.7 6.1 0.00 0.00 0.00 46 1018.1
20260506210037 70 315 2.6 8.7 0.00 0.00 0.00 46 1018.0
20260506204537 70 315 1.7 6.1 0.00 0.00 0.00 48 1018.3
20260506203017 69 203 2.6 8.7 0.00 0.00 0.00 50 1018.3
20260506201516 69 315 1.7 7.0 0.00 0.00 0.00 50 1018.6
20260506200017 68 315 1.7 7.8 0.00 0.00 0.00 51 1018.9
20260506194537 67 315 1.7 7.0 0.00 0.00 0.00 52 1019.1
20260506193017 67 315 1.7 7.0 0.00 0.00 0.00 50 1019.1
20260506191558 65 315 1.7 7.0 0.00 0.00 0.00 53 1019.2
20260506190018 65 338 1.7 7.8 0.00 0.00 0.00 52 1019.3
20260506184517 64 225 1.7 7.0 0.00 0.00 0.00 53 1019.5
20260506183016 63 338 1.7 7.0 0.00 0.00 0.00 57 1019.7
20260506181516 62 315 1.7 7.8 0.00 0.00 0.00 58 1019.6
20260506180017 61 315 1.7 5.2 0.00 0.00 0.00 57 1019.7
20260506174516 60 315 1.7 7.0 0.00 0.00 0.00 59 1019.6
20260506173016 60 315 1.7 6.1 0.00 0.00 0.00 60 1019.6
20260506171516 59 338 1.7 7.0 0.00 0.00 0.00 60 1019.7
20260506170016 58 203 1.7 5.2 0.00 0.00 0.00 65 1019.7
20260506164517 58 293 0.9 5.2 0.00 0.00 0.00 63 1019.6
20260506163016 57 315 1.7 7.8 0.00 0.00 0.00 66 1019.7
20260506161517 56 225 1.7 6.1 0.00 0.00 0.00 65 1019.3
20260506160016 56 315 0.9 4.3 0.00 0.00 0.00 67 1019.2
20260506154516 56 225 0.9 2.6 0.00 0.00 0.00 67 1019.1
20260506153016 55 225 0.9 3.5 0.00 0.00 0.00 66 1019.1
20260506151516 55 338 0.0 3.5 0.00 0.00 0.00 70 1019.2
20260506150016 54 0 0.0 1.7 0.00 0.00 0.00 73 1019.2
20260506144516 52 0 0.0 1.7 0.00 0.00 0.00 76 1019.1
20260506143016 50 90 0.0 0.9 0.00 0.01 0.00 81 1018.9
20260506141516 47 0 0.0 1.7 0.00 0.02 0.00 87 1018.8
20260506140038 46 0 0.0 2.6 0.00 0.07 0.00 89 1018.4
20260506134558 45 0 0.9 2.6 0.00 0.23 0.00 89 1018.2
20260506133018 45 0 0.9 2.6 0.00 0.24 0.00 89 1018.1
20260506131518 44 0 1.7 3.5 0.00 0.24 0.00 90 1017.9
20260506130018 44 0 1.7 3.5 0.00 0.24 0.00 89 1017.9
20260506124518 45 0 0.9 2.6 0.00 0.24 0.00 90 1017.7
20260506123018 44 0 0.9 3.5 0.00 0.24 0.00 89 1017.7
20260506121517 44 0 0.9 2.6 0.00 0.24 0.00 90 1017.8
20260506120018 45 0 0.9 2.6 0.00 0.24 0.00 89 1017.8
20260506114517 45 0 1.7 2.6 0.00 0.24 0.00 89 1017.9
20260506113018 45 0 0.9 3.5 0.00 0.24 0.00 89 1017.9
20260506111538 45 0 0.9 2.6 0.00 0.24 0.00 89 1017.9
20260506110018 45 0 0.9 2.6 0.00 0.24 0.00 89 1017.9
20260506104517 46 0 0.9 2.6 0.00 0.24 0.00 89 1017.9
20260506103038 46 0 0.9 2.6 0.00 0.24 0.00 89 1017.9
20260506101519 46 0 0.9 2.6 0.00 0.24 0.00 88 1018.0
20260506100017 46 0 0.9 1.7 0.00 0.24 0.00 87 1018.0
20260506094537 46 0 0.9 2.6 0.00 0.24 0.00 87 1018.0
20260506093038 46 0 0.0 2.6 0.00 0.24 0.00 87 1018.0
20260506091537 47 0 0.9 3.5 0.00 0.24 0.00 86 1018.1
20260506090017 47 0 0.9 2.6 0.00 0.24 0.00 86 1018.2
20260506084517 47 0 1.7 3.5 0.00 0.24 0.00 85 1018.4
20260506083017 47 0 0.0 1.7 0.00 0.25 0.00 84 1018.3
20260506081517 48 0 0.0 1.7 0.00 0.27 0.00 83 1018.2
20260506073017 52 0 0.0 0.0 0.00 0.27 0.00 78 1018.5
20260506071517 52 0 0.0 0.0 0.00 0.27 0.00 78 1018.4
20260506061517 53 0 1.7 3.5 0.00 0.27 0.27 75 1018.0
20260506044516 55 0 0.0 1.7 0.00 0.27 0.27 69 1016.9
20260506043017 55 0 0.0 1.7 0.00 0.27 0.27 68 1016.9
20260506041516 55 0 0.9 5.2 0.00 0.27 0.27 66 1016.7
20260506040016 55 0 0.9 4.3 0.00 0.27 0.27 66 1016.5
20260506034516 55 0 1.7 4.3 0.00 0.27 0.27 65 1016.2
20260506033017 55 0 1.7 4.3 0.00 0.27 0.27 64 1016.0
20260506031518 56 0 0.9 5.2 0.00 0.27 0.27 64 1016.0